Time;durP1;ratioP1;P1;durP2;ratioP2;P2;SDS_P1;SDS_P2;PMS_P1;PMS_P2;Temp;Humidity;BMP_temperature;BMP_pressure;BME280_temperature;BME280_humidity;BME280_pressure;Samples;Min_cycle;Max_cycle;Signal;HPM_P1;HPM_P2
2023/12/31 00:02:01;;;;;;;0.93;0.93;;;;;;;12.27;90.56;100514.47;5051995;28;20667;-81
2023/12/31 00:04:30;;;;;;;4.28;2.22;;;;;;;12.48;89.98;100526.06;5051956;28;20603;-80
2023/12/31 00:06:56;;;;;;;1.20;1.20;;;;;;;12.30;90.61;100519.75;5051834;28;20215;-80
2023/12/31 00:09:23;;;;;;;2.85;1.80;;;;;;;12.20;90.93;100517.84;5063466;28;20195;-79
2023/12/31 00:11:50;;;;;;;1.67;1.35;;;;;;;12.20;91.31;100517.84;5066685;28;20191;-79
2023/12/31 00:14:17;;;;;;;0.60;0.60;;;;;;;12.21;91.77;100526.50;5062720;28;20206;-78
2023/12/31 00:16:43;;;;;;;1.13;1.13;;;;;;;12.01;91.47;100489.81;5051636;28;20199;-78
2023/12/31 00:19:10;;;;;;;1.15;1.15;;;;;;;12.04;91.47;100497.66;5065579;28;20210;-78
2023/12/31 00:21:42;;;;;;;1.65;1.40;;;;;;;12.00;92.15;100497.59;5049348;28;20195;-78
2023/12/31 00:24:09;;;;;;;1.30;1.30;;;;;;;12.12;92.25;100518.59;5071790;28;20285;-78
2023/12/31 00:26:36;;;;;;;1.55;1.10;;;;;;;12.04;93.26;100515.84;5028425;28;20231;-77
2023/12/31 00:29:03;;;;;;;0.95;0.95;;;;;;;11.81;93.04;100481.69;5031547;28;20204;-78
2023/12/31 00:31:29;;;;;;;1.63;1.52;;;;;;;12.03;92.69;100529.69;5031689;28;20204;-78
2023/12/31 00:33:57;;;;;;;0.80;0.80;;;;;;;11.98;92.69;100531.38;5039358;28;20232;-78
2023/12/31 00:36:24;;;;;;;0.90;0.90;;;;;;;11.96;93.84;100529.56;5071570;28;20252;-78
2023/12/31 00:38:53;;;;;;;1.52;1.42;;;;;;;11.84;94.91;100538.06;5081796;28;20204;-78
2023/12/31 00:41:20;;;;;;;0.95;0.95;;;;;;;11.86;94.74;100533.75;5111964;28;20246;-78
2023/12/31 00:43:47;;;;;;;2.10;2.00;;;;;;;11.80;94.79;100536.25;5112439;28;20213;-78
2023/12/31 00:46:14;;;;;;;1.08;1.08;;;;;;;11.82;95.30;100539.72;5077560;28;20232;-78
2023/12/31 00:48:40;;;;;;;6.43;1.45;;;;;;;11.18;95.52;100444.19;5113692;28;20190;-79
2023/12/31 00:51:07;;;;;;;1.02;1.02;;;;;;;11.83;95.50;100525.91;5111382;28;20308;-78
2023/12/31 00:53:35;;;;;;;0.98;0.90;;;;;;;11.79;95.89;100530.16;5111236;28;20228;-78
2023/12/31 00:56:04;;;;;;;1.00;1.00;;;;;;;11.77;95.88;100533.59;5111500;28;20313;-78
2023/12/31 00:58:30;;;;;;;1.52;1.42;;;;;;;11.65;96.60;100531.63;5078477;28;20654;-78
2023/12/31 01:00:57;;;;;;;1.10;1.10;;;;;;;11.58;96.75;100521.97;5111543;28;20206;-79
2023/12/31 01:03:24;;;;;;;1.52;1.33;;;;;;;11.62;96.66;100515.09;5107663;28;20600;-79
2023/12/31 01:05:51;;;;;;;1.25;1.23;;;;;;;11.42;97.57;100501.75;5111449;28;20213;-79
2023/12/31 01:08:17;;;;;;;1.88;1.77;;;;;;;11.49;98.43;100513.13;5098785;28;20669;-79
2023/12/31 01:10:44;;;;;;;1.23;1.23;;;;;;;11.55;97.77;100513.25;5097727;28;20591;-79
2023/12/31 01:13:12;;;;;;;1.08;1.08;;;;;;;11.40;98.30;100499.16;5101316;28;20548;-80
2023/12/31 01:15:39;;;;;;;1.25;1.25;;;;;;;11.44;98.77;100520.84;5095085;28;20209;-80
2023/12/31 01:18:06;;;;;;;0.90;0.90;;;;;;;11.44;98.66;100521.72;5078502;28;20205;-79
2023/12/31 01:20:32;;;;;;;1.02;1.02;;;;;;;11.36;98.61;100499.06;5094993;28;20190;-79
2023/12/31 01:22:59;;;;;;;2.13;2.03;;;;;;;11.30;99.17;100518.00;5098623;28;20202;-79
2023/12/31 01:25:26;;;;;;;3.47;2.42;;;;;;;11.37;99.29;100517.28;5107556;28;20617;-78
2023/12/31 01:27:55;;;;;;;1.00;1.00;;;;;;;11.33;99.32;100517.19;5103587;28;20634;-78
2023/12/31 01:30:23;;;;;;;1.20;1.20;;;;;;;11.17;98.88;100473.59;5095073;28;20205;-79
2023/12/31 01:32:50;;;;;;;0.80;0.80;;;;;;;11.38;98.71;100515.53;5100139;28;20254;-80
2023/12/31 01:35:18;;;;;;;1.23;1.23;;;;;;;11.25;98.91;100474.63;5115003;28;20327;-78
2023/12/31 01:37:45;;;;;;;0.88;0.88;;;;;;;11.36;99.36;100507.72;5115446;28;20213;-78
2023/12/31 01:40:12;;;;;;;1.05;1.05;;;;;;;11.19;100.00;100483.19;5111134;28;20280;-78
2023/12/31 01:42:39;;;;;;;1.40;1.40;;;;;;;11.30;99.84;100507.63;5109756;28;20199;-78
2023/12/31 01:45:07;;;;;;;0.80;0.80;;;;;;;11.33;99.82;100511.97;5094792;28;20689;-78
2023/12/31 01:47:36;;;;;;;1.10;1.10;;;;;;;11.20;100.00;100502.22;5094826;28;20221;-78
2023/12/31 01:50:04;;;;;;;2.17;2.08;;;;;;;11.08;100.00;100484.69;5094912;28;20206;-78
2023/12/31 01:52:32;;;;;;;2.22;1.67;;;;;;;11.20;100.00;100499.63;5096014;28;20205;-79
2023/12/31 01:55:01;;;;;;;0.90;0.90;;;;;;;11.27;100.00;100504.94;5103180;28;20208;-80
2023/12/31 01:57:33;;;;;;;1.30;1.30;;;;;;;11.23;100.00;100497.97;5103494;28;20206;-78
2023/12/31 02:00:01;;;;;;;1.30;1.30;;;;;;;11.19;100.00;100483.19;5093854;28;20289;-79
2023/12/31 02:02:28;;;;;;;1.33;1.33;;;;;;;11.23;100.00;100486.69;5095720;28;20645;-79
2023/12/31 02:04:57;;;;;;;1.38;1.38;;;;;;;11.15;100.00;100452.81;5094414;28;20187;-80
2023/12/31 02:07:23;;;;;;;0.93;0.93;;;;;;;11.35;100.00;100479.13;5094610;28;20226;-79
2023/12/31 02:09:51;;;;;;;0.80;0.80;;;;;;;11.31;100.00;100483.38;5070889;28;20206;-79
2023/12/31 02:12:18;;;;;;;1.83;1.23;;;;;;;11.35;100.00;100484.31;5088629;28;20203;-79
2023/12/31 02:14:46;;;;;;;1.38;1.27;;;;;;;11.38;100.00;100480.06;5091195;28;20205;-78
2023/12/31 02:17:12;;;;;;;1.40;1.30;;;;;;;11.44;99.88;100487.09;5113820;28;20197;-79
2023/12/31 02:19:39;;;;;;;2.00;1.90;;;;;;;11.44;99.68;100487.97;5112825;28;20561;-80
2023/12/31 02:22:09;;;;;;;1.05;1.05;;;;;;;11.58;98.75;100492.53;5111927;28;20669;-78
2023/12/31 02:24:42;;;;;;;1.92;1.83;;;;;;;11.57;98.68;100496.84;5038646;28;20233;-79
2023/12/31 02:27:10;;;;;;;1.15;1.15;;;;;;;11.24;98.81;100454.69;5075942;28;20210;-78
2023/12/31 02:29:37;;;;;;;1.70;1.60;;;;;;;11.38;98.91;100490.44;5114293;28;20202;-78
2023/12/31 02:32:04;;;;;;;1.00;1.00;;;;;;;11.34;99.21;100490.38;5113302;28;20197;-78
2023/12/31 02:34:31;;;;;;;1.10;1.10;;;;;;;11.16;100.00;100471.88;5113688;28;20225;-78
2023/12/31 02:36:58;;;;;;;1.60;1.50;;;;;;;11.21;100.00;100478.88;5112108;28;20571;-78
2023/12/31 02:39:25;;;;;;;1.88;1.88;;;;;;;11.03;100.00;100475.03;5078227;28;20201;-78
2023/12/31 02:41:52;;;;;;;6.45;1.45;;;;;;;11.08;100.00;100476.91;5098011;28;20198;-78
2023/12/31 02:44:20;;;;;;;0.80;0.80;;;;;;;10.95;100.00;100485.31;5114801;28;20202;-78
2023/12/31 02:46:47;;;;;;;0.90;0.90;;;;;;;10.94;100.00;100479.22;5110801;28;20790;-78
2023/12/31 02:49:13;;;;;;;0.90;0.90;;;;;;;10.80;100.00;100451.28;5058237;28;20581;-79
2023/12/31 02:51:40;;;;;;;1.13;1.13;;;;;;;10.94;100.00;100460.19;5040797;28;20202;-78
2023/12/31 02:54:07;;;;;;;1.73;1.63;;;;;;;10.94;100.00;100470.56;5114061;28;20198;-78
2023/12/31 02:56:40;;;;;;;1.00;1.00;;;;;;;11.06;100.00;100463.00;5113040;28;20206;-78
2023/12/31 02:59:07;;;;;;;1.58;1.48;;;;;;;11.00;100.00;100457.72;5096192;28;20198;-79
2023/12/31 03:01:37;;;;;;;1.13;1.13;;;;;;;10.98;100.00;100464.59;5113982;28;20228;-78
2023/12/31 03:04:04;;;;;;;1.55;1.45;;;;;;;10.81;100.00;100440.91;5085682;28;20206;-78
2023/12/31 03:06:31;;;;;;;1.70;1.40;;;;;;;10.70;100.00;100428.59;5093399;28;20230;-78
2023/12/31 03:08:59;;;;;;;1.00;1.00;;;;;;;11.09;100.00;100491.63;5112077;28;20228;-78
2023/12/31 03:11:26;;;;;;;1.00;1.00;;;;;;;11.10;100.00;100487.28;5061275;28;20202;-79
2023/12/31 03:13:53;;;;;;;1.50;1.40;;;;;;;11.08;100.00;100500.25;5094723;28;20294;-78
2023/12/31 03:16:20;;;;;;;1.25;1.25;;;;;;;11.09;100.00;100503.72;5092872;28;20208;-78
2023/12/31 03:18:48;;;;;;;0.70;0.70;;;;;;;11.09;100.00;100498.53;5092942;28;20223;-78
2023/12/31 03:21:16;;;;;;;0.98;0.98;;;;;;;11.05;100.00;100478.56;5057163;28;20202;-78
2023/12/31 03:23:43;;;;;;;0.80;0.80;;;;;;;11.01;100.00;100472.44;5093503;28;20298;-79
2023/12/31 03:26:10;;;;;;;0.80;0.80;;;;;;;10.98;99.77;100462.00;5092430;28;20206;-78
2023/12/31 03:28:37;;;;;;;1.20;1.20;;;;;;;11.06;100.00;100501.94;5095239;28;20202;-79
2023/12/31 03:31:04;;;;;;;0.93;0.93;;;;;;;10.88;100.00;100475.63;5112484;28;20900;-79
2023/12/31 03:33:31;;;;;;;1.80;1.70;;;;;;;11.05;100.00;100505.38;5110683;28;20200;-78
2023/12/31 03:35:59;;;;;;;0.93;0.93;;;;;;;11.20;100.00;100516.03;5090349;28;20232;-79
2023/12/31 03:38:26;;;;;;;1.02;1.02;;;;;;;11.13;99.80;100526.31;5112328;28;20190;-79
2023/12/31 03:40:53;;;;;;;1.08;1.08;;;;;;;10.62;100.00;100471.63;5051730;28;20206;-79
2023/12/31 03:43:20;;;;;;;0.98;0.98;;;;;;;10.17;100.00;100487.91;5103608;28;20190;-79
2023/12/31 03:45:47;;;;;;;1.35;1.35;;;;;;;9.92;100.00;100529.59;5101954;28;20210;-79
2023/12/31 03:48:14;;;;;;;2.33;2.22;;;;;;;9.81;100.00;100526.72;5106516;28;20225;-80
2023/12/31 03:50:40;;;;;;;1.83;1.45;;;;;;;9.80;100.00;100529.31;5104950;28;20195;-80
2023/12/31 03:53:08;;;;;;;1.20;1.20;;;;;;;9.70;100.00;100535.94;5101954;28;20706;-79
2023/12/31 03:55:35;;;;;;;1.58;1.50;;;;;;;9.50;100.00;100525.91;5112196;28;20212;-79
2023/12/31 03:58:02;;;;;;;5.05;3.15;;;;;;;9.09;100.00;100489.47;5105899;28;20252;-79
2023/12/31 04:00:29;;;;;;;5.30;2.03;;;;;;;9.17;100.00;100531.94;5078064;28;20190;-79
2023/12/31 04:02:55;;;;;;;2.17;2.07;;;;;;;9.24;100.00;100539.03;5091859;28;20205;-79
2023/12/31 04:05:22;;;;;;;4.85;1.20;;;;;;;9.24;100.00;100535.59;5097142;28;20189;-79
2023/12/31 04:07:49;;;;;;;1.77;1.77;;;;;;;9.21;100.00;100544.13;5111915;28;20306;-79
2023/12/31 04:10:17;;;;;;;0.90;0.90;;;;;;;9.23;100.00;100546.75;5108596;28;20195;-78
2023/12/31 04:12:44;;;;;;;1.08;1.08;;;;;;;9.26;100.00;100552.00;5100861;28;20205;-78
2023/12/31 04:15:11;;;;;;;1.00;1.00;;;;;;;9.23;100.00;100552.81;5111500;28;20208;-78
2023/12/31 04:17:38;;;;;;;4.03;1.88;;;;;;;9.20;100.00;100557.91;5109903;28;20193;-77
2023/12/31 04:20:06;;;;;;;1.08;1.08;;;;;;;8.72;100.00;100459.13;5114581;28;20208;-78
2023/12/31 04:22:33;;;;;;;0.80;0.80;;;;;;;9.26;100.00;100552.91;5115288;28;20653;-78
2023/12/31 04:25:01;;;;;;;1.45;1.35;;;;;;;9.25;100.00;100561.47;5098690;28;20210;-78
2023/12/31 04:27:31;;;;;;;0.80;0.80;;;;;;;9.13;100.00;100535.25;5098870;28;20218;-78
2023/12/31 04:29:58;;;;;;;1.10;1.10;;;;;;;9.04;100.00;100529.84;5116042;28;20284;-77
2023/12/31 04:32:25;;;;;;;1.08;1.08;;;;;;;8.90;100.00;100515.66;5075062;28;20197;-78
2023/12/31 04:34:53;;;;;;;1.85;1.27;;;;;;;9.10;100.00;100561.03;5110843;28;20228;-78
2023/12/31 04:37:20;;;;;;;1.90;1.90;;;;;;;9.10;100.00;100553.28;5106634;28;20201;-78
2023/12/31 04:39:46;;;;;;;1.42;1.42;;;;;;;8.75;100.00;100503.16;5105604;28;20186;-78
2023/12/31 04:42:13;;;;;;;1.53;1.53;;;;;;;9.06;100.00;100559.19;5111508;28;20214;-78
2023/12/31 04:44:41;;;;;;;1.20;1.20;;;;;;;8.63;100.00;100505.41;5113072;28;20228;-78
2023/12/31 04:47:08;;;;;;;1.58;1.33;;;;;;;8.98;100.00;100570.19;5112787;28;20225;-78
2023/12/31 04:49:35;;;;;;;1.42;1.42;;;;;;;8.97;100.00;100569.28;5075328;28;20225;-79
2023/12/31 04:52:02;;;;;;;1.25;1.25;;;;;;;9.02;100.00;100572.03;5100241;28;20229;-79
2023/12/31 04:54:28;;;;;;;1.45;1.35;;;;;;;8.95;100.00;100555.47;5091423;28;20263;-79
2023/12/31 04:56:55;;;;;;;1.10;1.10;;;;;;;9.17;100.00;100568.16;5039305;28;20694;-78
2023/12/31 04:59:22;;;;;;;2.15;2.05;;;;;;;9.26;100.00;100570.13;5055770;28;21306;-78
2023/12/31 05:01:51;;;;;;;1.15;1.15;;;;;;;9.34;100.00;100576.41;5091403;28;20674;-78
2023/12/31 05:04:19;;;;;;;1.42;1.42;;;;;;;9.37;100.00;100577.34;5091410;28;20202;-79
2023/12/31 05:06:46;;;;;;;0.90;0.90;;;;;;;9.30;100.00;100557.31;5091121;28;20237;-79
2023/12/31 05:09:13;;;;;;;1.65;1.33;;;;;;;8.77;100.00;100482.53;5091694;28;20205;-79
2023/12/31 05:11:40;;;;;;;1.58;1.05;;;;;;;9.25;100.00;100576.13;5091211;28;20194;-79
2023/12/31 05:14:06;;;;;;;1.95;1.85;;;;;;;9.17;100.00;100581.09;5073437;28;20205;-79
2023/12/31 05:16:33;;;;;;;1.10;1.10;;;;;;;9.13;100.00;100581.81;5059055;28;20201;-79
2023/12/31 05:19:02;;;;;;;1.10;1.10;;;;;;;9.15;100.00;100590.53;5095819;28;20246;-79
2023/12/31 05:21:28;;;;;;;1.20;1.20;;;;;;;9.07;100.00;100585.94;5091989;28;20209;-79
2023/12/31 05:23:55;;;;;;;1.20;1.20;;;;;;;9.07;100.00;100591.13;5092509;28;20209;-79
2023/12/31 05:26:22;;;;;;;2.55;2.08;;;;;;;9.04;100.00;100599.69;5088491;28;20198;-79
2023/12/31 05:28:49;;;;;;;1.10;1.10;;;;;;;8.93;100.00;100583.84;5090285;28;20213;-79
2023/12/31 05:31:16;;;;;;;1.10;1.10;;;;;;;8.97;100.00;100595.16;5056253;28;20201;-79
2023/12/31 05:33:42;;;;;;;1.65;1.13;;;;;;;8.32;100.00;100482.91;5091579;28;20654;-78
2023/12/31 05:36:11;;;;;;;1.95;1.92;;;;;;;8.95;100.00;100594.25;5095152;28;20195;-78
2023/12/31 05:38:38;;;;;;;1.45;1.45;;;;;;;8.80;100.00;100575.69;5090039;28;20222;-82
2023/12/31 05:41:04;;;;;;;1.30;1.30;;;;;;;8.88;100.00;100587.16;5093992;28;20209;-79
2023/12/31 05:43:31;;;;;;;2.78;2.67;;;;;;;8.83;100.00;100583.53;5050332;28;20195;-78
2023/12/31 05:45:58;;;;;;;2.13;1.90;;;;;;;8.78;100.00;100585.97;5091351;28;20260;-78
2023/12/31 05:48:25;;;;;;;2.55;2.38;;;;;;;8.69;100.00;100577.06;5090779;28;20214;-78
2023/12/31 05:50:52;;;;;;;1.60;1.38;;;;;;;8.74;100.00;100597.03;5090526;28;20194;-78
2023/12/31 05:53:20;;;;;;;1.40;1.40;;;;;;;8.61;100.00;100573.38;5094755;28;20633;-78
2023/12/31 05:55:47;;;;;;;1.90;1.80;;;;;;;8.71;100.00;100601.25;5060786;28;20217;-78
2023/12/31 05:58:14;;;;;;;3.33;2.85;;;;;;;8.70;100.00;100599.50;5093998;28;20206;-78
2023/12/31 06:00:40;;;;;;;1.52;1.52;;;;;;;8.68;100.00;100593.41;5095988;28;20202;-80
2023/12/31 06:03:07;;;;;;;2.25;2.05;;;;;;;8.74;100.00;100596.19;5094611;28;20238;-78
2023/12/31 06:05:34;;;;;;;1.80;1.70;;;;;;;8.71;100.00;100590.91;5099234;28;20197;-79
2023/12/31 06:08:01;;;;;;;1.48;1.48;;;;;;;8.85;100.00;100600.84;5092748;28;20225;-79
2023/12/31 06:10:29;;;;;;;7.60;1.80;;;;;;;8.93;100.00;100606.25;5092431;28;20205;-79
2023/12/31 06:12:56;;;;;;;1.42;1.33;;;;;;;8.91;100.00;100602.75;5094207;28;20202;-79
2023/12/31 06:15:22;;;;;;;2.92;2.72;;;;;;;8.95;100.00;100596.84;5097329;28;20210;-78
2023/12/31 06:17:49;;;;;;;1.58;1.48;;;;;;;9.02;100.00;100601.34;5093399;28;20198;-79
2023/12/31 06:20:16;;;;;;;1.02;1.02;;;;;;;9.07;100.00;100606.63;5093743;28;20197;-76
2023/12/31 06:22:43;;;;;;;1.10;1.10;;;;;;;9.10;100.00;100612.78;5096090;28;20232;-77
2023/12/31 06:25:10;;;;;;;2.08;1.98;;;;;;;9.07;100.00;100591.13;5111358;28;20286;-78
2023/12/31 06:27:39;;;;;;;1.10;1.10;;;;;;;9.25;100.00;100609.75;5108583;28;20235;-86
2023/12/31 06:30:07;;;;;;;0.88;0.88;;;;;;;9.15;100.00;100581.88;5099971;28;20229;-85
2023/12/31 06:32:34;;;;;;;1.55;1.45;;;;;;;9.29;100.00;100609.91;5113098;28;20224;-84
2023/12/31 06:35:00;;;;;;;1.63;1.52;;;;;;;9.36;100.00;100606.66;5094159;28;20779;-77
2023/12/31 06:37:27;;;;;;;0.90;0.90;;;;;;;9.36;100.00;100611.81;5099516;28;20203;-83
2023/12/31 06:39:54;;;;;;;2.13;1.70;;;;;;;9.45;100.00;100609.47;5095965;28;20206;-82
2023/12/31 06:42:21;;;;;;;1.30;1.23;;;;;;;9.41;100.00;100596.44;5093384;28;20198;-84
2023/12/31 06:44:50;;;;;;;1.27;1.25;;;;;;;9.57;100.00;100621.91;5063641;28;20221;-81
2023/12/31 06:47:16;;;;;;;1.17;1.17;;;;;;;9.53;100.00;100626.94;5093421;28;20206;-82
2023/12/31 06:49:43;;;;;;;2.70;1.42;;;;;;;9.58;100.00;100630.53;5105940;28;21199;-82
2023/12/31 06:52:10;;;;;;;2.25;2.17;;;;;;;9.64;100.00;100618.63;5096357;28;20554;-80
2023/12/31 06:54:37;;;;;;;1.15;1.15;;;;;;;9.50;100.00;100588.03;5095108;28;20216;-80
2023/12/31 06:57:04;;;;;;;2.22;1.65;;;;;;;9.74;100.00;100623.22;5096358;28;20194;-81
2023/12/31 06:59:30;;;;;;;0.80;0.80;;;;;;;9.70;100.00;100613.63;5093605;28;20205;-83
2023/12/31 07:01:59;;;;;;;3.28;2.05;;;;;;;9.97;100.00;100636.78;5092842;28;20190;-80
2023/12/31 07:04:26;;;;;;;1.63;1.63;;;;;;;9.86;100.00;100601.97;5092335;28;20195;-82
2023/12/31 07:06:53;;;;;;;1.38;1.38;;;;;;;9.88;100.00;100600.31;5092775;28;20197;-82
2023/12/31 07:09:20;;;;;;;3.22;2.00;;;;;;;10.08;100.00;100640.53;5095483;28;20233;-83
2023/12/31 07:11:46;;;;;;;1.92;1.92;;;;;;;10.16;100.00;100652.03;5093786;28;20230;-83
2023/12/31 07:14:13;;;;;;;1.52;1.52;;;;;;;10.20;100.00;100646.06;5051288;28;20254;-81
2023/12/31 07:16:40;;;;;;;1.42;1.38;;;;;;;10.25;100.00;100648.78;5093853;28;20670;-80
2023/12/31 07:19:09;;;;;;;2.05;1.95;;;;;;;10.18;100.00;100647.75;5070019;28;20682;-80
2023/12/31 07:21:36;;;;;;;2.00;1.92;;;;;;;10.17;100.00;100658.94;5089344;28;20209;-79
2023/12/31 07:24:02;;;;;;;3.30;2.47;;;;;;;10.12;100.00;100632.03;5092418;28;20209;-80
2023/12/31 07:26:30;;;;;;;1.83;1.77;;;;;;;10.27;100.00;100655.72;5042899;28;20272;-75
2023/12/31 07:28:57;;;;;;;2.92;2.83;;;;;;;10.28;100.00;100654.91;5092162;28;20449;-82
2023/12/31 07:31:24;;;;;;;2.08;2.03;;;;;;;10.30;100.00;100649.78;5097803;28;20655;-78
2023/12/31 07:33:51;;;;;;;3.55;3.25;;;;;;;10.27;100.00;100645.38;5088160;28;20234;-78
2023/12/31 07:36:19;;;;;;;2.47;2.38;;;;;;;10.37;100.00;100660.34;5089557;28;20289;-80
2023/12/31 07:38:46;;;;;;;2.85;1.98;;;;;;;10.38;100.00;100658.63;5101418;28;20228;-81
2023/12/31 07:41:13;;;;;;;5.90;2.53;;;;;;;10.38;100.00;100659.47;5091850;28;20221;-79
2023/12/31 07:43:40;;;;;;;2.30;2.20;;;;;;;10.41;100.00;100664.75;5093870;28;20233;-80
2023/12/31 07:46:07;;;;;;;3.35;3.08;;;;;;;10.45;100.00;100668.31;5097041;28;20210;-80
2023/12/31 07:48:34;;;;;;;3.58;3.30;;;;;;;10.47;100.00;100664.03;5080540;28;20763;-81
2023/12/31 07:51:03;;;;;;;2.55;2.35;;;;;;;10.42;100.00;100643.16;5082558;28;20207;-72
2023/12/31 07:53:32;;;;;;;1.80;1.70;;;;;;;11.35;100.00;100659.13;5085029;28;20577;-77
2023/12/31 07:55:59;;;;;;;2.30;2.20;;;;;;;11.12;100.00;100662.97;5071797;28;20201;-80
2023/12/31 07:58:27;;;;;;;1.52;1.52;;;;;;;11.13;100.00;100669.91;5088531;28;20225;-74
2023/12/31 08:00:55;;;;;;;3.83;2.53;;;;;;;11.02;100.00;100661.03;5091855;28;20194;-71
2023/12/31 08:03:22;;;;;;;4.38;4.00;;;;;;;11.00;100.00;100667.00;5091596;28;20216;-72
2023/12/31 08:05:48;;;;;;;3.78;3.33;;;;;;;11.01;100.00;100677.44;5092618;28;20277;-75
2023/12/31 08:08:15;;;;;;;4.38;3.72;;;;;;;10.77;100.00;100643.16;5091541;28;20697;-74
2023/12/31 08:10:44;;;;;;;2.30;2.20;;;;;;;10.82;100.00;100685.63;5089263;28;20581;-79
2023/12/31 08:13:11;;;;;;;1.65;1.55;;;;;;;10.74;100.00;100689.72;5079607;28;20213;-78
2023/12/31 08:15:38;;;;;;;9.20;4.18;;;;;;;10.66;100.00;100686.97;5079269;28;20570;-77
2023/12/31 08:18:05;;;;;;;3.20;2.67;;;;;;;10.77;100.00;100685.50;5075272;28;20319;-79
2023/12/31 08:20:33;;;;;;;3.90;2.17;;;;;;;10.72;100.00;100694.91;5071206;28;20214;-79
2023/12/31 08:23:00;;;;;;;1.17;1.17;;;;;;;10.67;100.00;100699.09;5071106;28;20203;-76
2023/12/31 08:25:27;;;;;;;3.22;2.88;;;;;;;10.67;100.00;100693.03;5079333;28;20635;-75
2023/12/31 08:27:55;;;;;;;1.60;1.50;;;;;;;10.65;100.00;100690.41;5071029;28;20658;-75
2023/12/31 08:30:22;;;;;;;1.95;1.85;;;;;;;10.71;100.00;100695.72;5074357;28;20203;-74
2023/12/31 08:32:49;;;;;;;4.03;2.65;;;;;;;10.57;100.00;100671.19;5071484;28;20227;-79
2023/12/31 08:35:16;;;;;;;1.58;1.58;;;;;;;10.79;100.00;100698.50;5100016;28;20248;-80
2023/12/31 08:37:44;;;;;;;2.72;2.60;;;;;;;10.84;100.00;100694.31;5091333;28;20229;-78
2023/12/31 08:40:11;;;;;;;2.13;2.08;;;;;;;11.16;100.00;100689.88;5091296;28;20292;-85
2023/12/31 08:42:39;;;;;;;1.40;1.40;;;;;;;11.36;100.00;100692.06;5091265;28;20198;-84
2023/12/31 08:45:10;;;;;;;6.18;2.85;;;;;;;11.74;100.00;100695.47;5091632;28;20650;-80
2023/12/31 08:47:37;;;;;;;3.00;2.80;;;;;;;12.22;100.00;100692.94;5091494;28;20295;-75
2023/12/31 08:50:08;;;;;;;6.65;3.55;;;;;;;12.45;100.00;100695.06;5090293;28;20230;-80
2023/12/31 08:52:35;;;;;;;2.50;2.30;;;;;;;12.45;100.00;100697.69;5091529;28;20190;-77
2023/12/31 08:55:03;;;;;;;2.20;2.10;;;;;;;12.38;100.00;100707.06;5094426;28;20198;-75
2023/12/31 08:57:30;;;;;;;9.77;6.75;;;;;;;12.52;100.00;100687.38;5110820;28;20201;-78
2023/12/31 08:59:56;;;;;;;45.90;10.00;;;;;;;12.57;100.00;100664.03;5094866;28;20288;-75
2023/12/31 09:02:24;;;;;;;30.33;5.63;;;;;;;12.80;96.81;100704.34;5090640;28;20571;-74
2023/12/31 09:04:51;;;;;;;2.10;2.03;;;;;;;12.84;100.00;100698.34;5086232;28;20207;-76
2023/12/31 09:07:18;;;;;;;23.63;5.25;;;;;;;12.55;92.69;100691.78;5088491;28;20619;-81
2023/12/31 09:09:45;;;;;;;2.35;2.20;;;;;;;12.33;92.55;100699.22;5090425;28;20240;-81
2023/12/31 09:12:12;;;;;;;4.13;3.33;;;;;;;12.21;93.52;100696.38;5090303;28;20271;-85
2023/12/31 09:14:38;;;;;;;5.25;2.30;;;;;;;12.01;94.55;100686.47;5091982;28;20217;-76
2023/12/31 09:17:05;;;;;;;4.82;2.58;;;;;;;12.10;100.00;100682.31;5090962;28;20194;-86
2023/12/31 09:19:33;;;;;;;4.15;3.40;;;;;;;12.18;100.00;100646.94;5091615;28;20210;-80
2023/12/31 09:22:02;;;;;;;22.35;3.72;;;;;;;12.22;96.43;100679.94;5094395;28;20209;-73
2023/12/31 09:24:29;;;;;;;1.52;1.52;;;;;;;12.01;95.20;100640.56;5107895;28;20195;-87
2023/12/31 09:26:56;;;;;;;3.50;2.45;;;;;;;11.82;95.36;100646.25;5090954;28;20202;-78
2023/12/31 09:29:23;;;;;;;2.15;2.03;;;;;;;12.15;98.08;100669.41;5058724;28;20230;-77
2023/12/31 09:31:49;;;;;;;2.22;2.03;;;;;;;11.89;100.00;100598.75;5109150;28;20678;-77
2023/12/31 09:34:16;;;;;;;2.15;2.05;;;;;;;12.40;100.00;100669.84;5062116;28;20286;-81
2023/12/31 09:36:45;;;;;;;2.60;2.40;;;;;;;12.31;93.91;100672.28;5115091;28;20919;-76
2023/12/31 09:39:13;;;;;;;1.70;1.50;;;;;;;12.46;100.00;100666.47;5114786;28;20201;-74
2023/12/31 09:41:41;;;;;;;2.17;2.00;;;;;;;12.48;99.45;100664.78;5101230;28;20670;-75
2023/12/31 09:44:08;;;;;;;1.00;1.00;;;;;;;12.41;96.73;100653.38;5093481;28;20206;-73
2023/12/31 09:46:39;;;;;;;1.20;1.20;;;;;;;12.34;95.61;100646.31;5114708;28;20201;-75
2023/12/31 09:49:07;;;;;;;1.88;1.88;;;;;;;12.61;100.00;100650.25;5113007;28;20218;-78
2023/12/31 09:51:35;;;;;;;1.13;1.13;;;;;;;12.59;95.22;100667.56;5114007;28;20728;-82
2023/12/31 09:54:07;;;;;;;2.70;2.55;;;;;;;12.49;93.47;100661.31;5114102;28;20209;-82
2023/12/31 09:56:34;;;;;;;3.20;2.97;;;;;;;12.56;100.00;100649.28;5114333;28;20209;-79
2023/12/31 09:59:03;;;;;;;0.73;0.73;;;;;;;12.55;99.12;100643.22;5105329;28;20212;-83
2023/12/31 10:01:31;;;;;;;2.03;1.98;;;;;;;12.58;94.15;100645.00;5041808;28;20214;-74
2023/12/31 10:03:58;;;;;;;1.33;1.33;;;;;;;12.36;93.11;100591.75;5095411;28;20194;-85
2023/12/31 10:06:26;;;;;;;1.92;1.83;;;;;;;12.55;91.95;100644.94;5099727;28;20199;-87
2023/12/31 10:08:54;;;;;;;4.95;2.85;;;;;;;12.48;93.05;100643.09;5048524;28;20716;-86
2023/12/31 10:11:22;;;;;;;1.88;1.67;;;;;;;12.55;92.05;100634.53;5091772;28;20198;-76
2023/12/31 10:13:49;;;;;;;2.03;1.92;;;;;;;12.57;92.32;100635.44;5092166;28;20621;-74
2023/12/31 10:16:16;;;;;;;1.10;1.10;;;;;;;12.50;91.55;100611.06;5094260;28;20209;-80
2023/12/31 10:18:43;;;;;;;1.83;1.33;;;;;;;12.58;91.86;100626.78;5045344;28;20281;-85
2023/12/31 10:21:11;;;;;;;2.25;2.17;;;;;;;12.67;93.84;100626.91;5063387;28;20199;-78
2023/12/31 10:23:38;;;;;;;1.48;1.48;;;;;;;12.84;94.97;100625.47;5048885;28;20194;-81
2023/12/31 10:26:04;;;;;;;2.17;2.08;;;;;;;12.91;91.75;100622.09;5095457;28;20228;-75
2023/12/31 10:28:33;;;;;;;1.67;1.67;;;;;;;13.04;90.19;100616.19;5093023;28;20206;-72
2023/12/31 10:30:59;;;;;;;2.25;2.15;;;;;;;13.05;88.87;100610.13;5093333;28;20198;-73
2023/12/31 10:33:28;;;;;;;1.20;1.17;;;;;;;13.12;87.76;100608.53;5094129;28;20194;-74
2023/12/31 10:36:04;;;;;;;1.58;1.50;;;;;;;13.14;87.38;100584.25;5045680;28;20208;-74
2023/12/31 10:38:46;;;;;;;1.80;1.70;;;;;;;13.35;86.72;100594.03;5069967;28;20202;-80
2023/12/31 10:41:20;;;;;;;0.95;0.95;;;;;;;13.30;88.35;100591.41;5053433;28;20737;-80
2023/12/31 10:43:49;;;;;;;1.40;1.40;;;;;;;13.43;88.22;100592.41;5069666;28;20276;-80
2023/12/31 10:46:17;;;;;;;2.83;2.55;;;;;;;13.36;86.42;100588.88;5045908;28;20206;-83
2023/12/31 10:48:48;;;;;;;2.25;2.15;;;;;;;13.48;89.59;100577.72;5005267;28;20228;-81
2023/12/31 10:51:22;;;;;;;2.28;1.58;;;;;;;13.60;86.29;100577.84;5052480;28;20191;-83
2023/12/31 10:53:51;;;;;;;1.35;1.35;;;;;;;13.54;84.99;100562.16;5053129;28;20191;-82
2023/12/31 10:56:18;;;;;;;2.60;2.45;;;;;;;13.67;85.35;100573.56;5034159;28;20222;-75
2023/12/31 10:58:46;;;;;;;3.92;1.88;;;;;;;13.60;85.38;100570.00;5052608;28;20242;-71
2023/12/31 11:01:16;;;;;;;5.25;2.47;;;;;;;13.64;85.67;100565.72;5053307;28;20203;-76
2023/12/31 11:03:44;;;;;;;2.17;2.08;;;;;;;13.72;87.93;100559.72;5052937;28;20203;-73
2023/12/31 11:06:11;;;;;;;1.80;1.67;;;;;;;13.52;85.76;100550.81;5052583;28;20230;-74
2023/12/31 11:08:40;;;;;;;0.93;0.93;;;;;;;13.64;86.06;100542.25;5054847;28;20605;-82
2023/12/31 11:11:07;;;;;;;1.67;1.67;;;;;;;13.60;85.86;100543.97;5054479;28;21049;-79
2023/12/31 11:13:36;;;;;;;1.08;1.08;;;;;;;13.76;90.22;100526.75;5069830;28;20233;-74
2023/12/31 11:16:07;;;;;;;1.98;1.88;;;;;;;13.90;85.11;100530.34;5049614;28;20219;-71
2023/12/31 11:18:51;;;;;;;3.53;1.80;;;;;;;13.73;83.75;100479.81;5066013;28;20206;-81
2023/12/31 11:21:36;;;;;;;2.70;2.53;;;;;;;14.10;83.88;100518.34;5053500;28;20210;-84
2023/12/31 11:24:14;;;;;;;3.38;1.40;;;;;;;14.01;83.42;100518.28;5053201;28;20195;-77